x

9410840 - Santa Monica Pier (icac1) Weather Station

5:30 - Sat 6th Feb 2016 All times are PST. -8 hours from GMT.

  • Wind
    6mph, 8mph gusts
  • Sea Temp 58°f
  • Luft Temp 62°f
  • Sea Pressure 1024.2mb
  • 9410840 - Santa Monica Pier
  • 9410840 - Santa Monica Pier

More Historic Weather Station data

Upgrade to MSW Pro to gain access to the past 30 days of data for over 8000 Wavebouys and Weather Stations around the globe.

Join Pro

Comparision Forecast

View Surf forecast
   
Sa 02/06 5:30 6 8 mph 1024.2mb 58f 62f
5:24 7 8 mph 1024.2mb 58f 62f
5:18 7 8 mph 1024.2mb 58f 62f
5:12 6 8 mph 1024.3mb 58f 62f
5:06 5
mph
1024.2mb 58f 61f
5:00 3 5 mph 1024.4mb 58f 61f
4:54 2 3 mph 1024.5mb 58f 61f
4:48 1 3 mph 1024.5mb 58f 61f
4:42  -  7 mph 1024.6mb 58f 61f
4:36 2 8 mph 1024.5mb 58f 62f
4:30 6 11 mph 1024.6mb 58f 63f
4:24 7 10 mph 1024.6mb 58f 63f
4:18 9 14 mph 1024.6mb 58f 63f
4:12 9 16 mph 1024.6mb 58f 63f
4:06 10 15 mph 1024.8mb 58f 63f
4:00 11 16 mph 1024.9mb 58f 64f
3:54 15 22 mph 1025.1mb 58f 64f
3:48 16 20 mph 1025.3mb 58f 64f
3:42 14 17 mph 1025.5mb 58f 64f
3:36 14 17 mph 1025.4mb 58f 64f
3:30 14 17 mph 1025.4mb 58f 64f
3:24 10 16 mph 1025.3mb 58f 64f
3:18 10 14 mph 1025.2mb 58f 64f
3:12 6 11 mph 1025.2mb 58f 63f
3:06 9 11 mph 1025.3mb 58f 64f
3:00 7 11 mph 1025.3mb 58f 63f
2:54 8 11 mph 1025.3mb 58f 63f
2:48 7 11 mph 1025.3mb 58f 63f
2:42 7 11 mph 1025.4mb 58f 63f
2:36 8 11 mph 1025.4mb 58f 63f
2:30 8 11 mph 1025.4mb 58f 63f
2:24 8 10 mph 1025.4mb 58f 63f
2:18 7 11 mph 1025.4mb 58f 63f
2:12 9 11 mph 1025.5mb 58f 64f
2:06 9 11 mph 1025.5mb 58f 64f
2:00 6 9 mph 1025.5mb 58f 64f
1:54 7 10 mph 1025.6mb 58f 64f
1:48  -  mph - 58f 64f
1:42  -  mph - 58f 64f
1:36  -  mph - 58f 64f
1:30 7 10 mph 1025.7mb 58f 65f
1:24 7 9 mph 1025.7mb 58f 65f
1:18 6 9 mph 1025.6mb 58f 65f
1:12 8 10 mph 1025.6mb 58f 65f
1:06 8 9 mph 1025.6mb 58f 65f
1:00 7 9 mph 1025.6mb 58f 65f
12:54 8 9 mph 1025.5mb 58f 65f
12:48 8 11 mph 1025.5mb 58f 65f
12:42 8 10 mph 1025.5mb 58f 65f
12:36 7 8 mph 1025.5mb 58f 65f
12:30 7 8 mph 1025.5mb 58f 65f
12:24 6 8 mph 1025.4mb 58f 65f
12:18 7 8 mph 1025.5mb 58f 65f
12:12 5 6 mph 1025.6mb 58f 64f
12:06 3 6 mph 1025.6mb 58f 63f
12:00 5 6 mph 1025.6mb 58f 64f
Fr 02/05 11:54 6 7 mph 1025.7mb 58f 63f
11:48 3 6 mph 1025.7mb 58f 64f
11:42 6 7 mph 1025.7mb 58f 64f
11:36 7
mph
1025.7mb 58f 64f
11:30 5 8 mph 1025.7mb 58f 63f
11:24 8 9 mph 1025.7mb 58f 63f
11:18 8 10 mph 1025.7mb 58f 64f
11:12 9 10 mph 1025.7mb 58f 64f
11:06 3 11 mph 1025.6mb 58f 66f
11:00 7 14 mph 1025.5mb 58f 67f
10:54 11 17 mph 1025.4mb 58f 67f
10:48 11 18 mph 1025.3mb 58f 67f
10:42 10 18 mph 1025.2mb 59f 67f
10:36 10 16 mph 1025.2mb 59f 67f
10:30 11 21 mph 1025.2mb 59f 67f
10:24 16 21 mph 1025.2mb 59f 68f
10:18 13 20 mph 1025.2mb 59f 68f
10:12 15 20 mph 1025.1mb 59f 68f
10:06 13 16 mph 1025.1mb 59f 68f
10:00 16 21 mph 1025.1mb 59f 68f
9:54 14 20 mph 1025.1mb 59f 68f
9:48 15 23 mph 1025mb 59f 69f
9:42 15 21 mph 1025mb 59f 69f
9:36 14 24 mph 1025mb 59f 69f
9:30 16 22 mph 1025mb 59f 69f
9:24 18 25 mph 1025mb 59f 69f
9:18 17 22 mph 1025mb 59f 69f
9:12 14 20 mph 1025mb 59f 68f
9:06 15 21 mph 1025mb 59f 69f
9:00 14 20 mph 1025mb 59f 69f
8:54 15 17 mph 1025mb 59f 69f
8:48 13 17 mph 1025.1mb 59f 69f
8:42 11 17 mph 1025.1mb 59f 69f
8:36 14 17 mph 1025.1mb 59f 69f
8:30 14 18 mph 1025.1mb 59f 69f
8:24 13 16 mph 1025.1mb 59f 69f
8:18 13 16 mph 1025.1mb 59f 69f
8:12 14 16 mph 1025.1mb 59f 69f
8:06 11 16 mph 1025.1mb 59f 69f
8:00 10 16 mph 1025.1mb 59f 69f
7:54 11 15 mph 1025mb 59f 69f
7:48 15 18 mph 1025mb 59f 70f
7:42 15 17 mph 1024.9mb 59f 70f
7:36 13 16 mph 1024.9mb 59f 69f
7:30 11 16 mph 1025mb 59f 69f
7:24 13 18 mph 1025mb 59f 70f
7:18 13 17 mph 1024.9mb 59f 70f
7:12 11 18 mph 1024.9mb 59f 70f
7:06 13 16 mph 1024.9mb 59f 70f
7:00 14 18 mph 1024.9mb 59f 70f
6:54 14 18 mph 1024.7mb 59f 70f
6:48 13 17 mph 1024.7mb 59f 70f
6:42 11 17 mph 1024.7mb 59f 70f
6:36 15 18 mph 1024.7mb 59f 70f
6:30 11 17 mph 1024.6mb 59f 71f
6:24 8 14 mph 1024.6mb 59f 71f
6:18 10 15 mph 1024.5mb 59f 71f
6:12 10 14 mph 1024.5mb 59f 71f
6:06 9 15 mph 1024.6mb 59f 71f
6:00 8 14 mph 1024.6mb 59f 71f
5:54 5 8 mph 1024.5mb 59f 71f
5:48 5 10 mph 1024.5mb 59f 68f
5:42 2 5 mph 1024.5mb 59f 66f
5:36 3 7 mph 1024.4mb 59f 66f
5:30 8 11 mph 1024.4mb 59f 65f
5:24 8 10 mph 1024.4mb 59f 64f
5:18 7 11 mph 1024.3mb 59f 67f
5:12 2 14 mph 1024.2mb 59f 71f
5:06 10 18 mph 1024.2mb 59f 74f
5:00 8 18 mph 1024.1mb 59f 74f
4:54 10 17 mph 1024mb 59f 74f
4:48 13 18 mph 1023.9mb 59f 74f
4:42 13 16 mph 1023.9mb 59f 75f
4:36 14 21 mph 1023.9mb 59f 75f
4:30 16 21 mph 1023.8mb 59f 75f
4:24 13 21 mph 1023.8mb 59f 75f
4:18 14 17 mph 1023.8mb 59f 75f
4:12 11 17 mph 1023.7mb 59f 76f
4:06 13 16 mph 1023.8mb 59f 76f
4:00 14 16 mph 1023.8mb 59f 76f
2:48  -  mph - 59f 76f
2:42  -  mph - 59f 74f
2:36  -  mph - 59f 71f
2:30 2 7 mph 1024.3mb 59f 70f
2:24 5 8 mph 1024.4mb 59f 67f
2:18  -  mph 1024.5mb 59f 69f
2:12  -  mph 1024.6mb 59f 67f
2:06  -  mph 1024.7mb 59f 65f
2:00 3 6 mph 1024.7mb 59f 66f
1:54 1 7 mph 1024.8mb 59f 67f
1:48  -  mph 1024.9mb 59f 66f
1:42  -  mph 1025mb 59f 66f
1:36  -  mph 1025.1mb 59f 64f
1:30 6 9 mph 1025.2mb 59f 65f
1:24 6 11 mph 1025.2mb 59f 65f
1:18 9 11 mph 1025.3mb 59f 65f
1:12 8 10 mph 1025.4mb 59f 66f
1:06 9 10 mph 1025.5mb 59f 65f
1:00 9 10 mph 1025.6mb 59f 65f
12:54 8 10 mph 1025.7mb 59f 66f
12:48 6 9 mph 1025.8mb 59f 66f
12:42 6 8 mph 1025.8mb 59f 68f
12:36 7
mph
1025.8mb 59f 68f
12:30 7 8 mph 1025.9mb 59f 69f
12:24 8
mph
1026mb 59f 68f
12:18 7 8 mph 1026.1mb 59f 69f
12:12 8 9 mph 1026.2mb 59f 69f
12:06 9 10 mph 1026.4mb 59f 68f
12:00 9
mph
1026.5mb 59f 67f
11:54 8 9 mph 1026.6mb 59f 67f
11:48 9 10 mph 1026.7mb 59f 67f
11:42 10
mph
1026.8mb 59f 66f
11:36 10
mph
1026.9mb 59f 65f
11:30 9 10 mph 1026.9mb 59f 66f
11:24 9 10 mph 1027mb 59f 66f
11:18 9
mph
1027mb 59f 65f
11:12 10 11 mph 1027mb 59f 65f
11:06 8
mph
1027mb 59f 65f
11:00 6
mph
1027.1mb 59f 65f
10:54 6
mph
1027.1mb 58f 66f
10:48 6
mph
1027.1mb 58f 66f
10:42 6 7 mph 1027.1mb 58f 66f
10:36 7
mph
1027.2mb 58f 66f
10:30 6 8 mph 1027.3mb 58f 65f
10:24 7 9 mph 1027.3mb 58f 65f
10:18 8
mph
1027.4mb 58f 65f
10:12 6 7 mph 1027.4mb 58f 65f
10:06 5 6 mph 1027.3mb 58f 65f
10:00 6
mph
1027.3mb 58f 65f
9:54 5 6 mph 1027.4mb 58f 65f
9:48 6
mph
1027.4mb 58f 65f
9:42 3 5 mph 1027.4mb 58f 65f
9:36 3 5 mph 1027.4mb 58f 64f
9:30  -  6 mph 1027.3mb 58f 66f
9:24 6
mph
1027.4mb 58f 64f
9:18 6
mph
1027.3mb 58f 64f
9:12 5 6 mph 1027.3mb 58f 64f
9:06 3 6 mph 1027.3mb 58f 63f
9:00 3 5 mph 1027.3mb 58f 62f
8:54 3 7 mph 1027.3mb 58f 62f
8:48 6 7 mph 1027.3mb 58f 61f
8:42 6 8 mph 1027.2mb 58f 60f
8:36 3 7 mph 1027.1mb 58f 60f
8:30 6 8 mph 1027.1mb 58f 58f
8:24 7 10 mph 1027.1mb 58f 58f
8:18 8 10 mph 1027.1mb 58f 56f
8:12 8 9 mph 1027.1mb 58f 56f
8:06 7
mph
1027mb 58f 56f
8:00 7
mph
1027mb 58f 56f
7:54 6 8 mph 1027mb 58f 57f
7:48 6 7 mph 1027mb 58f 60f
7:42 3 7 mph 1026.9mb 58f 60f
7:36 6 8 mph 1026.8mb 58f 61f
7:30 5 6 mph 1026.7mb 58f 60f
7:24 3 6 mph 1026.7mb 58f 60f
7:18 6 7 mph 1026.7mb 58f 60f
7:12 6
mph
1026.7mb 58f 60f
7:06 6
mph
1026.7mb 58f 59f
7:00 5 6 mph 1026.6mb 58f 58f
6:54 6 7 mph 1026.6mb 58f 59f
6:48 5 6 mph 1026.6mb 58f 56f
6:42 2 3 mph 1026.5mb 58f 54f
6:36 2 5 mph 1026.5mb 58f 55f
6:30 2 6 mph 1026.4mb 58f 55f
6:24 5 7 mph 1026.3mb 58f 55f
6:18 5 7 mph 1026.3mb 58f 56f
6:12 5 6 mph 1026.2mb 58f 58f
6:06 3 5 mph 1026.2mb 58f 57f
6:00 5 7 mph 1026.1mb 58f 57f
5:54 3 7 mph 1026mb 58f 59f
5:48 7 10 mph 1025.9mb 58f 60f
5:42 9
mph
1025.8mb 58f 60f
5:36 8 9 mph 1025.9mb 58f 60f
5:30 8
mph
1025.9mb 58f 60f
5:24 8
mph
1025.8mb 58f 60f
5:18 8 9 mph 1025.8mb 58f 59f
5:12 9 10 mph 1025.7mb 58f 58f
5:06 10 11 mph 1025.7mb 58f 58f
5:00 9 10 mph 1025.6mb 58f 57f
4:54 9 10 mph 1025.6mb 58f 56f
4:48 8 10 mph 1025.5mb 58f 56f
4:42 10 11 mph 1025.5mb 58f 55f
4:36 9 11 mph 1025.6mb 58f 54f
4:30 10 13 mph 1025.5mb 58f 54f
4:24 10 13 mph 1025.5mb 58f 54f
4:18 9 11 mph 1025.4mb 58f 55f
4:12 9 13 mph 1025.4mb 58f 57f
4:06 9 11 mph 1025.3mb 58f 57f
4:00 8
mph
1025.2mb 58f 58f
3:54 7 9 mph 1025.2mb 58f 62f
3:48 6 8 mph 1025.1mb 58f 62f
3:42 6 8 mph 1025.1mb 58f 62f
3:36 6 7 mph 1025.2mb 58f 62f
3:30 6 7 mph 1025.2mb 58f 62f
3:24 8 9 mph 1025.2mb 58f 61f
3:18 7 8 mph 1025.2mb 58f 61f
3:12 7
mph
1025.1mb 59f 61f
3:06 6 7 mph 1025.1mb 59f 60f
3:00 6 8 mph 1025.1mb 59f 61f
2:54 7
mph
1025.1mb 59f 60f
2:48 6
mph
1025.1mb 59f 59f
2:42 2 3 mph 1025.1mb 59f 58f
2:36 5 6 mph 1025.1mb 59f 59f
2:30 5 6 mph 1025mb 59f 58f
2:24 6 7 mph 1025.1mb 59f 57f
2:18 7 8 mph 1025mb 59f 62f
2:12 6 7 mph 1025mb 59f 60f
2:06 6 7 mph 1025mb 58f 58f
2:00 5 6 mph 1025mb 58f 57f
1:54 5 8 mph 1025mb 59f 61f
1:48  -  mph - 59f 61f
1:42  -  mph - 59f 61f
1:36  -  mph - 59f 60f
1:30 6 7 mph 1025mb 59f 60f
1:24 6
mph
1025mb 59f 60f
1:18 6 7 mph 1024.9mb 59f 60f
1:12 7
mph
1024.9mb 59f 60f
1:06 6 7 mph 1024.9mb 59f 60f
1:00 6 7 mph 1024.9mb 59f 60f
12:54 6 8 mph 1025mb 59f 60f
12:48 7 8 mph 1024.9mb 59f 59f
12:42 7 8 mph 1024.9mb 59f 60f
12:36 7 8 mph 1025mb 59f 60f
12:30 6
mph
1025.1mb 59f 59f
12:24 2 5 mph 1025.1mb 59f 58f
12:18 5 6 mph 1025.2mb 59f 59f
12:12 5 7 mph 1025.2mb 59f 59f
12:06 6 8 mph 1025.1mb 59f 59f
12:00 7 9 mph 1025.1mb 59f 59f
Do 02/04 11:54 8 10 mph 1025.2mb 59f 59f
11:48 9 10 mph 1025.2mb 59f 59f
11:42 7 8 mph 1025.2mb 59f 60f
11:36 6 7 mph 1025.1mb 59f 59f
11:30 5 6 mph 1025.1mb 59f 59f
11:24 5 6 mph 1025.1mb 59f 60f
11:18 3 8 mph 1025mb 59f 63f
11:12 6 11 mph 1025mb 59f 63f
11:06 5 7 mph 1025mb 59f 61f
11:00 5 6 mph 1025mb 59f 60f
10:54 5 7 mph 1024.9mb 59f 62f
10:48 6 9 mph - - -
10:42 8 9 mph - - -
10:36 5 15 mph - - -
10:30 11 17 mph 1024.7mb - 65f
10:24 15 18 mph 1024.6mb - 65f
10:18  -  mph 1024.6mb 59f 64f
10:12  -  mph 1024.5mb 59f 64f
10:06  -  mph 1024.5mb 59f 65f
10:00 14 18 mph 1024.5mb 59f 65f
9:54 15 18 mph 1024.5mb 59f 65f
9:48 15 20 mph 1024.5mb 59f 65f
9:42 15 20 mph 1024.5mb 59f 65f
9:36 14 17 mph 1024.5mb 59f 65f
9:30 13 17 mph 1024.4mb 59f 65f
9:24 14 18 mph 1024.4mb 59f 65f
9:18 10 15 mph 1024.4mb 59f 64f
9:12 14 20 mph 1024.3mb 59f 64f
9:06 16 20 mph 1024.3mb 59f 65f
9:00 14 22 mph 1024.2mb 59f 65f
8:54 17 22 mph 1024.2mb 59f 65f
8:48 15 20 mph 1024.2mb 59f 65f
8:42 16 18 mph 1024.2mb 59f 65f
8:36 8 13 mph 1024.2mb 59f 64f
8:30 2 7 mph 1024.3mb 59f 64f
8:24 2 7 mph 1024.2mb 59f 63f
8:18 3 6 mph 1024.2mb 59f 64f
8:12 3 6 mph 1024.2mb 59f 64f
8:06 5 6 mph 1024.1mb 59f 64f
8:00 5 8 mph 1024.1mb 59f 64f
7:54 3 7 mph 1024.1mb 59f 63f
7:48 8 11 mph 1024mb 59f 64f
7:42 8 11 mph 1024mb 59f 64f
7:36 8 11 mph 1023.9mb 59f 64f
7:30 8 11 mph 1023.9mb 59f 63f
7:24 3 7 mph 1023.9mb 59f 63f
7:18 5 7 mph 1023.9mb 59f 62f
7:12 2 5 mph 1023.9mb 59f 60f
7:06 1 2 mph 1023.9mb 59f 58f
7:00 1 2 mph 1024mb 59f 58f
6:54  -  2 mph 1024mb 59f 58f
6:48 1 6 mph 1023.8mb 59f 59f
6:42 5 6 mph 1023.8mb 59f 58f
6:36 6 7 mph 1023.8mb 59f 58f
6:30 5 6 mph 1023.7mb 59f 59f
6:24 5 6 mph 1023.8mb 59f 58f
6:18 2 3 mph 1023.8mb 59f 58f
6:12  -  2 mph 1023.8mb 59f 58f
6:06 2
mph
1023.8mb 59f 58f
6:00 1 2 mph 1023.8mb 59f 58f
5:54 2
mph
1023.8mb 59f 58f
5:48 1 2 mph 1023.8mb 59f 58f
5:42  -  mph 1023.8mb 59f 58f
5:36  -  2 mph 1023.7mb 59f 59f
5:30  -  2 mph 1023.6mb 59f 59f
5:18 2 3 mph 1023.6mb 59f -
5:12 3
mph
1023.6mb 59f -
5:06 5 6 mph 1023.7mb 59f -
5:00 6
mph
1023.6mb 59f 60f
4:54 5
mph
1023.6mb 59f 60f
4:48 3 6 mph 1023.6mb 59f 60f
4:42 3 6 mph 1023.6mb 59f 61f
4:36 3 5 mph 1023.6mb 59f 61f
4:30 2 5 mph 1023.6mb - 61f
4:24 5 6 mph 1023.4mb - 61f
4:18 6
mph
1023.6mb 59f 61f
4:12 5 8 mph 1023.7mb 59f 61f
4:06 7 8 mph 1023.8mb 59f 60f
4:00 7 8 mph 1023.8mb 59f 60f
3:54 6 8 mph 1023.8mb 59f 60f
3:48 7 8 mph 1023.9mb 59f -
3:42 6 8 mph 1023.8mb 59f -
3:36 7
mph
1023.8mb 59f -
3:30 6 7 mph 1023.9mb 59f 61f
3:24 7
mph
1024mb 59f 60f
3:18 6 8 mph 1024mb 59f 60f
3:12 7 9 mph 1024mb 59f 60f
3:06 7 9 mph 1024mb 59f 60f
3:00 7 9 mph - 59f 60f
2:54 8 10 mph - 59f 60f
2:48 8 10 mph 1024.1mb 59f 60f
2:42 8 9 mph 1024.2mb 59f 60f
2:36 8 10 mph 1024.2mb 59f 60f
2:30 9 10 mph 1024.2mb 59f 59f
2:24 9 11 mph 1024.4mb 59f 59f
2:18 10 13 mph 1024.4mb 59f 59f
2:12 10 11 mph 1024.4mb 59f 59f
2:06 10 13 mph 1024.5mb 59f 59f
2:00 11 13 mph 1024.5mb - 59f
1:54 10 13 mph 1024.5mb - 59f
1:48 10 11 mph 1024.6mb 59f 59f
1:42 10 11 mph 1024.6mb 59f 59f
1:36 10 11 mph 1024.8mb 59f 59f
1:30 10 11 mph 1024.8mb 59f 59f
1:24 11 13 mph 1024.8mb 59f 59f
1:18 9 10 mph 1024.9mb 59f 60f
1:12 8 9 mph 1025mb 59f 61f
1:06 5 7 mph 1025mb 59f 62f
1:00 6 7 mph 1025mb 59f 61f
12:54 7 8 mph 1025mb 59f 60f
12:48 7 8 mph 1025.1mb 58f 61f
12:42 7 8 mph 1025.2mb 58f 60f
12:36 8 9 mph 1025.2mb 58f 61f
12:30 9 10 mph 1025.3mb 58f 60f
12:24 10 11 mph 1025.4mb 58f 61f
12:18 10 11 mph 1025.5mb 58f 61f
12:12 9 10 mph 1025.5mb 58f 63f
12:06 10 11 mph 1025.7mb 58f 62f
12:00 10 11 mph 1025.9mb 58f 60f
11:54 10
mph
1026mb 58f 61f
11:48 9 10 mph 1026.1mb 58f 61f
11:42 9 10 mph 1026.2mb 58f 60f
11:36 7 9 mph 1026.3mb 58f 61f
11:30 9
mph
1026.4mb 58f 61f
11:24 8 9 mph 1026.5mb 58f 61f
11:18 9
mph
1026.6mb 58f 60f
11:12 7 8 mph 1026.7mb 58f 61f
11:06 7
mph
1026.8mb 58f 61f
11:00 2 5 mph 1026.8mb 58f 64f
10:54  -  6 mph 1026.9mb 58f 65f
10:48 3 5 mph 1027.1mb 58f 64f
10:42 2 6 mph 1027.2mb 58f 64f
10:36 6 9 mph 1027.3mb 58f 63f
10:30 3 7 mph 1027.4mb 58f 63f
10:24 2 5 mph 1027.5mb 58f 63f
10:18 3 10 mph 1027.5mb 58f 63f
10:12 5 7 mph 1027.5mb 58f 63f
10:06 2 6 mph 1027.5mb 58f 62f
10:00 3 5 mph 1027.6mb 58f 60f
9:54  -  3 mph 1027.5mb 58f 62f
9:48 3 6 mph 1027.6mb 58f 61f
9:42 3 6 mph 1027.5mb 58f 60f
9:36 2 7 mph 1027.6mb 58f 61f
9:30 3 9 mph 1027.7mb 58f 62f
9:24 2 6 mph 1027.7mb 58f 62f
9:18 3 8 mph 1027.6mb 58f 61f
9:12 5 8 mph 1027.7mb 58f 60f
9:06 5 9 mph 1027.7mb 58f 60f
9:00 7 10 mph 1027.7mb 58f 60f
8:54 6 8 mph 1027.8mb 58f 59f
8:48 1 6 mph 1027.8mb 58f 58f
8:42 3 7 mph 1027.7mb 58f 58f
8:36  -  2 mph 1027.6mb 58f 56f
8:30  -  2 mph 1027.4mb 58f 57f
8:24  -  2 mph 1027.3mb 58f 56f
8:18  -  2 mph 1027.3mb 58f 56f
8:12 2 5 mph 1027.4mb 58f 55f
8:06 5
mph
1027.4mb 58f 54f
8:00 3
mph
1027.4mb 58f 55f
7:54 2 3 mph 1027.4mb 58f 55f
7:48 2 5 mph 1027.4mb 58f 55f
7:42 5 6 mph 1027.4mb 58f 55f
7:36 5 6 mph 1027.3mb 58f 54f
7:30 3 6 mph 1027.3mb 58f 54f
7:24 3 5 mph 1027.3mb 58f 53f
7:18 5 8 mph 1027.2mb 58f 52f
7:12 7 9 mph 1027.1mb 58f 52f
7:06 6 8 mph 1027.1mb 58f 51f
7:00 8 9 mph 1027.1mb 58f 51f
6:54 8 9 mph 1027.1mb 58f 51f
6:48 9 11 mph 1027.1mb 58f 51f
6:42 8 10 mph 1027.1mb 58f 51f
6:36 8 10 mph 1027mb 58f 51f
6:30 7 9 mph 1026.9mb 58f 51f
6:24 7 9 mph 1026.9mb 58f 51f
6:18 8 9 mph 1027mb 58f 51f
6:12 7 8 mph 1027mb 58f 51f
6:06 7 8 mph 1026.9mb 58f 51f
6:00 8 9 mph 1026.8mb 58f 52f
5:54 8 9 mph 1026.8mb 58f 52f
5:48 9 10 mph 1026.8mb 58f 53f
5:42 6 9 mph 1026.8mb 58f 53f
5:36 3 6 mph 1026.9mb 58f 53f
5:30 5 6 mph 1026.9mb 58f 53f
5:24 2 3 mph 1026.9mb 58f 53f
5:18 2
mph
1026.8mb 58f 52f
5:12  -  2 mph 1026.9mb 58f 52f
5:06  -  mph 1027mb 58f 52f
5:00  -  3 mph 1027mb 58f 52f
4:54  -  2 mph 1027mb 58f 53f
4:48 2 3 mph 1027mb 58f 53f
4:42  -  3 mph 1027.1mb 58f 52f
4:36 1 5 mph 1027.1mb 58f 52f
4:30 2 8 mph 1027.1mb 58f 53f
4:24 5 6 mph 1027.1mb 58f 52f
4:18 2 3 mph 1027.1mb 58f 52f
4:12 3 5 mph 1027mb 58f 53f
4:06 3 5 mph 1027mb 58f 53f
4:00 2 3 mph 1027mb 58f 53f
3:54 5 6 mph 1027.1mb 58f 53f
3:48 2
mph
1027.1mb 58f 53f
3:42 2 5 mph 1027.1mb 58f 53f
3:36 3 6 mph 1027.1mb 58f 53f
3:30 5 7 mph 1027.1mb 58f 53f
3:24 5 7 mph 1027.1mb 58f 52f
3:18 3 7 mph 1027.1mb 58f 52f
3:12 5 6 mph 1027.2mb 58f 52f
3:06 5 6 mph 1027.2mb 58f 52f
3:00 5 8 mph 1027.2mb 58f 53f
2:54 7 8 mph 1027.3mb 58f 53f
2:48 7 9 mph 1027.4mb 58f 52f
2:42 6 8 mph 1027.5mb 58f 52f
2:36 6 8 mph 1027.5mb 58f 52f
2:30 6 8 mph 1027.4mb 58f 52f
2:24 6 8 mph 1027.5mb 58f 52f
2:18  -  mph - - 51f
2:12  -  mph - - 52f
2:06  -  mph - - 52f
2:00 6 8 mph - - -
1:54 6 7 mph - - -
1:48  -  mph - - 54f
1:42  -  mph - - 54f
1:36  -  mph - - 54f
1:30 8 9 mph 1027.8mb 58f 54f
1:24 8 10 mph 1027.9mb 58f 54f
1:18 8 10 mph 1028mb 59f 54f
1:12 8 9 mph 1028mb 59f 54f
1:06 6 9 mph 1028mb 59f 54f
1:00 8 10 mph 1028.2mb 59f 55f
12:54 8 9 mph 1028.3mb 59f 54f
12:48 7 8 mph 1028.3mb 59f 54f
12:42 8 9 mph 1028.2mb 59f 54f
12:36 6 8 mph 1028.2mb 59f 54f
12:30 3 6 mph 1028.3mb 59f 53f
12:24 5 7 mph 1028.2mb 59f 53f
12:18 6 8 mph 1028.1mb 59f 53f
12:12 7 8 mph 1028.2mb 59f 54f
12:06 5 7 mph 1028.2mb 59f 54f
12:00 7 8 mph 1028.2mb 59f 54f
Mi 02/03 11:54 3 6 mph 1028.2mb 59f 55f
11:48  -  5 mph 1028.3mb 59f 54f
11:42 5 6 mph 1028.3mb 59f 54f
11:36 6 8 mph 1028.3mb 59f 54f
11:30 7 9 mph 1028.4mb 59f 55f
11:24 7 9 mph 1028.5mb 59f 55f
11:18  -  mph 1028.4mb 59f 55f
11:12  -  mph 1028.4mb 59f 55f
11:06  -  mph 1028.4mb 59f 55f
11:00 5 6 mph 1028.4mb 59f 55f
10:54 3 5 mph 1028.3mb 59f 55f
10:48 2 5 mph 1028.2mb 59f 56f
10:42 2 3 mph 1028.2mb 59f 56f
10:36 2 3 mph 1028.1mb 59f 55f
10:30 2 3 mph 1028.1mb 59f 55f
10:24 5 6 mph 1028.1mb 59f 55f
10:18 6 7 mph 1028.1mb 59f 55f
10:12 6 7 mph 1028mb 59f 56f
10:06 3 6 mph 1028mb 59f 56f
10:00 6 7 mph 1028.1mb 59f 57f
9:54 3 5 mph 1028.2mb 59f 57f
9:48 5 6 mph 1028.2mb 59f 57f
9:42 5 6 mph 1028.1mb 59f 57f
9:36 5
mph
1028.1mb 59f 57f
9:30 2
mph
1028.1mb 59f 56f
9:24 1 3 mph 1028.1mb 59f 56f
9:18 1 2 mph 1028.1mb 59f 56f
9:12 2 3 mph 1028mb 59f 56f
9:06 2 3 mph 1028mb 59f 57f
9:00 2
mph
1028mb 59f 57f
8:54 1 2 mph 1028mb 59f 57f
8:48  -  1 mph 1027.9mb 59f 57f
8:42 1 5 mph 1027.9mb 59f 58f
8:36 6 11 mph 1027.7mb 59f 58f
8:30 10 13 mph 1027.6mb 59f 58f
8:24 10 14 mph 1027.6mb 59f 58f
8:18 10 11 mph 1027.7mb 59f 58f
8:12 6 8 mph 1027.7mb 59f 58f
8:06 1 5 mph 1027.6mb 59f 58f
8:00 3 6 mph 1027.6mb 59f 58f
7:54 5 6 mph 1027.7mb 59f 58f
7:48 5 6 mph 1027.7mb 59f 58f
7:42 5 6 mph 1027.7mb 59f 58f
7:36 3 7 mph 1027.6mb 59f 57f
7:30 6 13 mph 1027.6mb 59f 57f
7:24 7 13 mph 1027.5mb 59f 57f
7:18 8 9 mph 1027.5mb 59f 57f
7:12 7 8 mph 1027.4mb 59f 57f
7:06 6 7 mph 1027.3mb 59f 57f
7:00 5 7 mph 1027.2mb 59f 57f
6:54 6 9 mph 1027.2mb 59f 57f
6:48 9 13 mph 1027.2mb 59f 57f
6:42 13 14 mph 1027.2mb 59f 58f
6:36 13 14 mph 1027.2mb 59f 58f
6:30 13 14 mph 1027.2mb 59f 57f
6:24 10 14 mph 1027.2mb 59f 57f
6:18 13 15 mph 1027.2mb 59f 57f
6:12 13 15 mph 1027.2mb 59f 57f
6:06 13 14 mph 1027.1mb 59f 57f
6:00  -  mph 1027mb 59f 57f
5:54  -  mph 1026.9mb 59f 57f
5:48 11 14 mph 1026.8mb - 57f
5:42 13 15 mph 1026.8mb - 57f
5:36 14 16 mph 1026.8mb - 57f
5:30 15 18 mph 1026.7mb 59f 57f
5:24 16 17 mph 1026.6mb 59f 57f
5:18 15 16 mph 1026.6mb 59f 57f
5:12 13 14 mph 1026.5mb 59f 57f
5:06 14
mph
1026.4mb 59f 57f
5:00 11 14 mph 1026.3mb 59f 57f
4:54 10 13 mph 1026.3mb 59f 57f
4:48 10 11 mph 1026.2mb 59f 57f
4:42 10 11 mph 1026.2mb 59f 57f
4:36 10 11 mph 1026.2mb 59f 57f
4:30 9 11 mph 1026.1mb 59f 57f
4:24 10 11 mph 1026.1mb 59f 57f
4:18 10 13 mph 1026.1mb 59f 57f
4:12 11 14 mph 1026.1mb 59f 57f
4:06 13 14 mph 1026.1mb 59f 57f
4:00 14 15 mph 1026.1mb 59f 57f
3:54 15 16 mph 1026.1mb 59f 57f
3:48 15 17 mph - 59f 57f
3:42 15 17 mph - 59f 57f
3:36 15 16 mph - 59f 57f
3:30 15 17 mph 1026.1mb 59f 57f
3:24 15 16 mph 1026.1mb 59f 57f
3:18  -  mph 1026.2mb 59f 57f
3:12  -  mph 1026.1mb 59f 57f
3:06  -  mph 1026.1mb 59f 57f
3:00 17 18 mph 1026.1mb 59f 57f
2:54 18 20 mph 1026.2mb 59f 57f
2:48 16 17 mph - 59f -
2:42 15 17 mph - 59f -
2:36 14 15 mph - 59f -
2:30 14 15 mph 1026.2mb 59f 58f
2:24 13 14 mph 1026.2mb 59f 58f
2:18 11 13 mph 1026.2mb 59f 58f
2:12 11 14 mph 1026.2mb 59f 58f
2:06 10 11 mph 1026.3mb 59f 58f
2:00 11
mph
1026.3mb 59f 58f
1:54 9 10 mph 1026.4mb 59f 58f
1:48 8 10 mph 1026.4mb 59f 58f
1:42 8 9 mph 1026.4mb 59f 58f
1:36 8 9 mph 1026.4mb 59f 58f
1:30 9 10 mph 1026.5mb 59f 58f
1:24 7 8 mph 1026.6mb 59f 58f
1:18 7 8 mph 1026.7mb 59f 58f
1:12 7
mph
1026.7mb 59f 58f
1:06 6 7 mph 1026.8mb 58f 58f
1:00 7 9 mph 1026.9mb 59f 58f
12:54 8
mph
1027mb 58f 58f
12:48 7 8 mph 1027.1mb 58f 58f
12:42 8
mph
1027.1mb 58f 57f
12:36 7 8 mph 1027.1mb 58f 57f
12:30 7 9 mph 1027.2mb 58f 57f
12:24 8 9 mph 1027.3mb 58f 57f
12:18 7 8 mph 1027.4mb 58f 57f
12:12 7
mph
1027.5mb 58f 57f
12:06 6
mph
1027.6mb 58f 57f
12:00 6
mph
1027.6mb 58f 57f
11:54 6
mph
1027.7mb 58f 57f
11:48 5
mph
1027.8mb 58f 57f
11:42 3 5 mph 1027.9mb 58f 57f
11:36 5 6 mph 1028mb 58f 57f
11:30 5 6 mph 1028.1mb 58f 57f
11:24 5
mph
1028.1mb 58f 57f
11:18 5
mph
1028.3mb 58f 57f
11:12 3 5 mph 1028.3mb 58f 57f
11:06 3 5 mph 1028.4mb 58f 57f
11:00 5 7 mph 1028.4mb 58f 56f
10:54 6 7 mph 1028.6mb 58f 56f
10:48 6
mph
1028.7mb 58f 56f
10:42 5 6 mph 1028.7mb 58f 56f
10:36 3 5 mph 1028.6mb 58f 57f
10:30 2 3 mph 1028.6mb 58f 57f
10:24 2 3 mph 1028.7mb 58f 58f
10:18 2 3 mph 1028.8mb 58f 58f
10:12 2 5 mph 1028.8mb 58f 57f
10:06 3
mph
1028.8mb 58f 57f
10:00  -  2 mph 1028.8mb 58f 58f
9:54 2
mph
1028.7mb 58f 59f
9:48 1 3 mph 1028.6mb 58f 57f
9:42 5 6 mph 1028.6mb 58f 56f
9:36 7 8 mph 1028.5mb 58f 56f
9:30 6 7 mph 1028.4mb 58f 56f
9:24 6 7 mph 1028.4mb 58f 56f
9:18 7 8 mph 1028.3mb 58f 55f
9:12 6 8 mph 1028.2mb 58f 55f
9:06 7 8 mph 1028.1mb 58f 55f
9:00 2 5 mph 1028.1mb 58f 55f
8:54 5
mph
1027.9mb 58f 55f
8:48  -  2 mph 1027.8mb 58f 56f
8:42 1 3 mph 1027.8mb 58f 56f
8:36 2 5 mph 1027.7mb 58f 55f
8:30 3 6 mph 1027.6mb 58f 55f
8:24 3 6 mph 1027.6mb 58f 54f
8:18 5 7 mph 1027.5mb 58f 54f
8:12 5 8 mph 1027.4mb 58f 53f
8:06 6 10 mph 1027.3mb 58f 53f
8:00 8 11 mph 1027.2mb 58f 52f
7:54 8 10 mph 1027.2mb 58f 52f
7:48 8 10 mph 1027.2mb 58f 51f
7:42 7 9 mph 1027.2mb 58f 51f
7:36 8 10 mph 1027mb 58f 51f
7:30 7 9 mph 1027mb 58f 50f
7:24 6 8 mph 1026.9mb 58f 50f
7:18 6 8 mph 1026.9mb 58f 50f
7:12 6 8 mph 1026.8mb 58f 50f
7:06 6 8 mph 1026.7mb 58f 50f
7:00 8 11 mph 1026.5mb 58f 51f
6:54 7 9 mph 1026.4mb 58f 51f
6:48 7 9 mph 1026.2mb 58f 51f
6:42 5 7 mph 1026.2mb 58f 50f
6:36 5 8 mph 1026.1mb 58f 50f
6:30 5 9 mph 1026mb 58f 50f
6:24 6 9 mph 1025.8mb 58f 50f
6:18 6 8 mph 1025.7mb 58f 49f
6:12 6
mph
1025.6mb 58f 49f
6:06 6 7 mph 1025.6mb 58f 49f
6:00 6 9 mph 1025.6mb 58f 49f
5:54 7 9 mph 1025.6mb 58f 50f
5:48 7 9 mph 1025.6mb 58f 50f
5:42 7 9 mph 1025.5mb 58f 50f
5:36 8 10 mph 1025.4mb 58f 50f
5:30 7 9 mph 1025.4mb 58f 49f
5:24 8 10 mph 1025.4mb 58f 50f
5:18 8 9 mph 1025.3mb 58f 49f
5:12 9
mph
1025.3mb 58f 49f
5:06 8
mph
1025.3mb 58f 50f
5:00 7 8 mph 1025.2mb 58f 50f
4:54 8 9 mph 1025.2mb 58f 50f
4:48 7 9 mph 1025.1mb 58f 50f
4:42 6 10 mph 1025mb 58f 50f
4:36 8 10 mph 1025mb 58f 51f
4:30 7 8 mph 1025mb 58f 50f
4:24 6 8 mph 1025mb 58f 50f
4:18 6
mph
1025mb 58f 49f
4:12 5 6 mph 1024.9mb 58f 49f
4:06 5 7 mph 1024.8mb 58f 49f
4:00 6 9 mph 1024.7mb 58f 50f
3:54 7 9 mph 1024.6mb 58f 50f
3:48 7 8 mph 1024.5mb 58f 50f
3:42 7
mph
1024.5mb 58f 50f
3:36 6 7 mph 1024.5mb 58f 49f
3:30 6 8 mph 1024.5mb 58f 50f
3:24 6 7 mph 1024.5mb 58f 50f
3:18 5 9 mph 1024.5mb 58f 50f
3:12 7 9 mph 1024.5mb 58f 50f
3:06 8 10 mph 1024.5mb 58f 51f
3:00 8 11 mph 1024.6mb 58f 51f
2:54 9 10 mph 1024.6mb 58f 51f
2:48 8 10 mph 1024.7mb 58f 51f
2:42 7 9 mph 1024.7mb 58f 51f
2:36 5 8 mph 1024.7mb 58f 51f
2:30 7 9 mph 1024.6mb 58f 51f
2:24 8 9 mph 1024.6mb 58f 52f
2:18 8 9 mph 1024.7mb 58f 52f
2:12 6 7 mph 1024.6mb 58f 52f
2:06 6 7 mph 1024.6mb 58f 52f
2:00 6 8 mph 1024.6mb 58f 52f
1:54 7 8 mph 1024.5mb 58f 52f
1:48  -  mph - 58f 52f
1:42  -  mph - 58f 52f
1:36  -  mph - 58f 52f
1:30 6 9 mph 1024.5mb 58f 53f
1:24 6 8 mph 1024.5mb 58f 53f
1:18 8 9 mph 1024.4mb 58f 53f
1:12 6 9 mph 1024.2mb 58f 53f
1:06 7 10 mph 1024.1mb 58f 53f
1:00 8 13 mph 1024.1mb 58f 54f
12:54 6 9 mph 1024mb 58f 53f
12:48 8 10 mph 1023.9mb 58f 53f
12:42 10 14 mph 1023.8mb 58f 54f
12:36 9 13 mph 1023.8mb 58f 54f
12:30 10 16 mph 1023.7mb 58f 54f
12:24 7 10 mph 1023.7mb 58f 53f
12:18 8 10 mph 1023.8mb 58f 53f
12:12 9 10 mph 1023.8mb 58f 53f
12:06 6 10 mph 1023.7mb 58f 54f
12:00 7 10 mph 1023.7mb 59f 54f
Di 02/02 11:54 7 14 mph 1023.7mb 59f 54f
11:48 11 13 mph 1023.6mb 59f 54f
11:42 6 9 mph 1023.6mb 59f 53f
11:36 6 8 mph 1023.7mb 58f 53f
11:30 6 10 mph 1023.7mb 58f 53f
11:24 5 15 mph 1023.7mb 58f 54f
11:18 7 18 mph 1023.6mb 58f 55f
11:12 11 14 mph 1023.5mb 58f 54f
11:06 6 14 mph 1023.6mb 58f 54f
11:00 11 15 mph 1023.6mb 58f 55f
10:54 7 11 mph 1023.6mb 58f 55f
10:48 6 8 mph 1023.6mb 58f 54f
10:42 6 8 mph 1023.5mb 58f 54f
10:36 3 8 mph 1023.5mb 59f 54f
10:30 5 8 mph 1023.5mb 59f 55f
10:24 6 10 mph 1023.4mb 59f 55f
10:18 5 8 mph 1023.4mb 59f 55f
10:12 5 8 mph 1023.4mb 59f 55f
10:06 3 9 mph 1023.4mb 59f 55f
10:00 7 13 mph 1023.5mb 59f 54f
9:54 7 8 mph 1023.4mb 59f 54f
9:48 3 7 mph 1023.3mb 59f 53f
9:42 3 5 mph 1023.4mb 59f 53f
9:36 5 6 mph 1023.5mb 59f 53f
9:30 5
mph
1023.5mb 59f 54f
9:24 5 8 mph 1023.4mb 59f 54f
9:18 6 7 mph 1023.5mb 59f 53f
9:12 7 8 mph 1023.4mb 59f 53f
9:06 5 7 mph 1023.4mb 59f 53f
9:00 6 7 mph 1023.2mb 59f 54f
8:54 3 5 mph 1023.2mb 59f 54f
8:48 2 3 mph 1023mb 59f 54f
8:42 3 5 mph 1023mb 59f 54f
8:36 5 6 mph 1023.1mb 59f 54f
8:30 1 2 mph 1023.1mb 59f 54f
8:24  -  2 mph 1023.1mb 59f 54f
8:18 1 3 mph 1023mb 59f 54f
8:12 3
mph
1022.9mb 59f 54f
8:06 1 2 mph 1022.9mb 59f 55f
8:00 2 6 mph 1022.9mb 59f 55f
7:54 6 8 mph 1022.8mb 59f 55f
7:48 7 9 mph 1022.8mb 59f 55f
7:42 8 9 mph 1022.8mb 59f 56f
7:36 6 8 mph 1022.8mb 59f 56f
7:30 6
mph
1022.7mb 59f 56f
7:24 3 8 mph 1022.6mb 59f 56f
7:18 8 11 mph 1022.5mb 59f 56f
7:12 8 11 mph 1022.5mb 59f 56f
7:06 10 11 mph 1022.5mb 59f 56f
7:00 10 14 mph 1022.5mb 59f 56f
6:54 13 18 mph 1022.4mb 59f 56f
6:48 14 18 mph 1022.3mb 59f 56f
6:42 13 17 mph 1022.3mb 59f 57f
6:36 10 14 mph 1022.3mb 59f 57f
6:30  -  mph 1022.3mb 59f 57f
6:24  -  mph 1022.3mb 59f 57f
6:18 8 11 mph 1022.2mb 59f 57f
6:12 8 11 mph 1022.1mb 59f 58f
6:06 8 9 mph 1022.1mb 59f 57f
6:00 6 8 mph - 59f 58f
5:54 8 9 mph - 59f 58f
5:48 8 9 mph 1021.8mb 59f 58f
5:42 8 9 mph 1021.7mb 59f 58f
5:36 8 10 mph 1021.6mb 59f 58f
5:30 6 7 mph 1021.6mb 59f 59f
5:24 3 8 mph 1021.5mb 59f 58f
5:18 7 9 mph 1021.4mb 59f 58f
5:12 9 14 mph 1021.4mb 59f 58f
5:06 11 15 mph 1021.4mb 59f 58f
5:00  -  mph 1021.4mb 59f 58f
4:54  -  mph 1021.4mb 59f 58f
4:48 8 9 mph 1021.4mb 59f 58f
4:42 7 10 mph 1021.3mb 59f 58f
4:36 8 10 mph 1021.4mb 59f 58f
4:30  -  mph 1021.4mb 59f 58f
4:24  -  mph 1021.4mb 59f 57f
4:18 13 15 mph 1021.4mb 59f 57f
4:12 14 15 mph 1021.5mb 59f 57f
4:06 14 15 mph 1021.5mb 59f 57f
4:00 11 13 mph 1021.5mb 59f 58f
3:54 9 11 mph 1021.5mb 59f 57f
3:48 10 11 mph 1021.5mb 59f 57f
3:42 9 10 mph 1021.5mb 59f 57f
3:36 9 10 mph 1021.4mb 59f 56f
3:30 8 9 mph 1021.4mb 59f 56f
3:24 8 9 mph 1021.4mb 59f 56f
3:18 8 9 mph 1021.4mb 59f 56f
3:12 7 8 mph 1021.5mb 59f 56f
3:06 8 9 mph 1021.5mb 59f 56f
3:00 9 11 mph 1021.5mb 59f 56f
2:54 10 11 mph 1021.5mb 59f 56f
2:48 11 13 mph 1021.5mb 59f 55f
2:42 10 11 mph 1021.5mb 59f 56f
2:36 9 10 mph 1021.5mb 59f 56f
2:30 7 9 mph 1021.5mb 59f 56f
2:24 6 7 mph 1021.5mb 59f 56f